sensor_id;sensor_type;location;lat;lon;timestamp;temperature;humidity
4673;DHT22;61885;53.560;9.940;2023-05-10T00:01:43;14.30;1.00
4673;DHT22;61885;53.560;9.940;2023-05-10T00:04:13;14.30;1.00
4673;DHT22;61885;53.560;9.940;2023-05-10T00:06:45;14.40;1.00
4673;DHT22;61885;53.560;9.940;2023-05-10T00:09:15;14.20;1.00
4673;DHT22;61885;53.560;9.940;2023-05-10T00:11:44;14.20;1.00
4673;DHT22;61885;53.560;9.940;2023-05-10T00:14:16;14.20;1.00
4673;DHT22;61885;53.560;9.940;2023-05-10T00:16:46;14.20;1.00
4673;DHT22;61885;53.560;9.940;2023-05-10T00:19:15;14.20;1.00
4673;DHT22;61885;53.560;9.940;2023-05-10T00:21:47;14.20;1.00
4673;DHT22;61885;53.560;9.940;2023-05-10T00:24:17;14.10;1.00
4673;DHT22;61885;53.560;9.940;2023-05-10T00:26:46;14.10;1.00
4673;DHT22;61885;53.560;9.940;2023-05-10T00:29:16;14.00;1.00
4673;DHT22;61885;53.560;9.940;2023-05-10T00:31:46;14.10;1.00
4673;DHT22;61885;53.560;9.940;2023-05-10T00:34:15;14.00;1.00
4673;DHT22;61885;53.560;9.940;2023-05-10T00:36:47;14.00;1.00
4673;DHT22;61885;53.560;9.940;2023-05-10T00:39:17;14.00;1.00
4673;DHT22;61885;53.560;9.940;2023-05-10T00:41:46;13.90;1.00
4673;DHT22;61885;53.560;9.940;2023-05-10T00:44:16;13.80;1.00
4673;DHT22;61885;53.560;9.940;2023-05-10T00:46:46;13.80;1.00
4673;DHT22;61885;53.560;9.940;2023-05-10T00:49:17;13.80;1.00
4673;DHT22;61885;53.560;9.940;2023-05-10T00:51:50;13.80;1.00
4673;DHT22;61885;53.560;9.940;2023-05-10T00:54:20;13.70;1.00
4673;DHT22;61885;53.560;9.940;2023-05-10T00:56:49;13.70;1.00
4673;DHT22;61885;53.560;9.940;2023-05-10T00:59:19;13.70;1.00
4673;DHT22;61885;53.560;9.940;2023-05-10T01:01:49;13.60;1.00
4673;DHT22;61885;53.560;9.940;2023-05-10T01:04:21;13.60;1.00
4673;DHT22;61885;53.560;9.940;2023-05-10T01:06:54;13.50;1.00
4673;DHT22;61885;53.560;9.940;2023-05-10T01:09:24;13.50;1.00
4673;DHT22;61885;53.560;9.940;2023-05-10T01:11:54;13.40;1.00
4673;DHT22;61885;53.560;9.940;2023-05-10T01:14:26;13.50;1.00
4673;DHT22;61885;53.560;9.940;2023-05-10T01:16:56;13.50;1.00
4673;DHT22;61885;53.560;9.940;2023-05-10T01:19:28;13.50;1.00
4673;DHT22;61885;53.560;9.940;2023-05-10T01:22:14;13.50;1.00
4673;DHT22;61885;53.560;9.940;2023-05-10T01:25:16;13.40;1.00
4673;DHT22;61885;53.560;9.940;2023-05-10T01:28:13;13.40;1.00
4673;DHT22;61885;53.560;9.940;2023-05-10T01:31:08;13.40;1.00
4673;DHT22;61885;53.560;9.940;2023-05-10T01:33:54;13.40;1.00
4673;DHT22;61885;53.560;9.940;2023-05-10T01:36:30;13.30;1.00
4673;DHT22;61885;53.560;9.940;2023-05-10T01:39:06;13.30;1.00
4673;DHT22;61885;53.560;9.940;2023-05-10T01:41:44;13.30;1.00
4673;DHT22;61885;53.560;9.940;2023-05-10T01:44:18;13.20;1.00
4673;DHT22;61885;53.560;9.940;2023-05-10T01:46:55;13.30;1.00
4673;DHT22;61885;53.560;9.940;2023-05-10T01:49:36;13.20;1.00
4673;DHT22;61885;53.560;9.940;2023-05-10T01:52:10;13.20;1.00
4673;DHT22;61885;53.560;9.940;2023-05-10T01:54:44;13.10;1.00
4673;DHT22;61885;53.560;9.940;2023-05-10T01:57:20;13.20;1.00
4673;DHT22;61885;53.560;9.940;2023-05-10T01:59:52;13.10;1.00
4673;DHT22;61885;53.560;9.940;2023-05-10T02:02:24;13.10;1.00
4673;DHT22;61885;53.560;9.940;2023-05-10T02:04:58;13.10;1.00
4673;DHT22;61885;53.560;9.940;2023-05-10T02:07:29;13.10;1.00
4673;DHT22;61885;53.560;9.940;2023-05-10T02:10:00;13.00;1.00
4673;DHT22;61885;53.560;9.940;2023-05-10T02:12:31;13.00;1.00
4673;DHT22;61885;53.560;9.940;2023-05-10T02:15:05;12.90;1.00
4673;DHT22;61885;53.560;9.940;2023-05-10T02:17:37;13.00;1.00
4673;DHT22;61885;53.560;9.940;2023-05-10T02:20:11;12.90;1.00
4673;DHT22;61885;53.560;9.940;2023-05-10T02:22:43;11.90;1.00
4673;DHT22;61885;53.560;9.940;2023-05-10T02:25:14;12.90;1.00
4673;DHT22;61885;53.560;9.940;2023-05-10T02:27:47;12.90;1.00
4673;DHT22;61885;53.560;9.940;2023-05-10T02:30:18;12.80;1.00
4673;DHT22;61885;53.560;9.940;2023-05-10T02:32:49;12.80;1.00
4673;DHT22;61885;53.560;9.940;2023-05-10T02:35:22;12.80;1.00
4673;DHT22;61885;53.560;9.940;2023-05-10T02:37:54;12.80;1.00
4673;DHT22;61885;53.560;9.940;2023-05-10T02:40:25;12.80;1.00
4673;DHT22;61885;53.560;9.940;2023-05-10T02:42:56;12.70;1.00
4673;DHT22;61885;53.560;9.940;2023-05-10T02:45:30;12.70;1.00
4673;DHT22;61885;53.560;9.940;2023-05-10T02:48:00;12.70;1.00
4673;DHT22;61885;53.560;9.940;2023-05-10T02:50:33;12.70;1.00
4673;DHT22;61885;53.560;9.940;2023-05-10T02:53:09;12.70;1.00
4673;DHT22;61885;53.560;9.940;2023-05-10T02:55:40;12.70;1.00
4673;DHT22;61885;53.560;9.940;2023-05-10T02:58:11;12.70;1.00
4673;DHT22;61885;53.560;9.940;2023-05-10T03:00:40;12.70;1.00
4673;DHT22;61885;53.560;9.940;2023-05-10T03:03:10;12.70;1.00
4673;DHT22;61885;53.560;9.940;2023-05-10T03:05:42;12.70;1.00
4673;DHT22;61885;53.560;9.940;2023-05-10T03:08:12;12.60;1.00
4673;DHT22;61885;53.560;9.940;2023-05-10T03:10:55;12.70;1.00
4673;DHT22;61885;53.560;9.940;2023-05-10T03:13:35;12.70;1.00
4673;DHT22;61885;53.560;9.940;2023-05-10T03:16:08;12.70;1.00
4673;DHT22;61885;53.560;9.940;2023-05-10T03:18:42;12.70;1.00
4673;DHT22;61885;53.560;9.940;2023-05-10T03:21:17;12.70;1.00
4673;DHT22;61885;53.560;9.940;2023-05-10T03:23:51;12.70;1.00
4673;DHT22;61885;53.560;9.940;2023-05-10T03:26:28;12.70;1.00
4673;DHT22;61885;53.560;9.940;2023-05-10T03:29:00;12.70;1.00
4673;DHT22;61885;53.560;9.940;2023-05-10T03:31:30;12.70;1.00
4673;DHT22;61885;53.560;9.940;2023-05-10T03:34:01;12.70;1.00
4673;DHT22;61885;53.560;9.940;2023-05-10T03:36:33;12.60;1.00
4673;DHT22;61885;53.560;9.940;2023-05-10T03:39:03;12.60;1.00
4673;DHT22;61885;53.560;9.940;2023-05-10T03:41:32;12.70;1.00
4673;DHT22;61885;53.560;9.940;2023-05-10T03:44:02;12.70;1.00
4673;DHT22;61885;53.560;9.940;2023-05-10T03:46:32;12.60;1.00
4673;DHT22;61885;53.560;9.940;2023-05-10T03:49:02;12.60;1.00
4673;DHT22;61885;53.560;9.940;2023-05-10T03:51:35;12.70;1.00
4673;DHT22;61885;53.560;9.940;2023-05-10T03:54:04;12.70;1.00
4673;DHT22;61885;53.560;9.940;2023-05-10T03:56:34;12.70;1.00
4673;DHT22;61885;53.560;9.940;2023-05-10T03:59:04;12.60;1.00
4673;DHT22;61885;53.560;9.940;2023-05-10T04:01:35;12.60;1.00
4673;DHT22;61885;53.560;9.940;2023-05-10T04:04:05;12.70;1.00
4673;DHT22;61885;53.560;9.940;2023-05-10T04:06:38;12.70;1.00
4673;DHT22;61885;53.560;9.940;2023-05-10T04:09:07;12.70;1.00
4673;DHT22;61885;53.560;9.940;2023-05-10T04:11:39;12.70;1.00
4673;DHT22;61885;53.560;9.940;2023-05-10T04:14:08;12.60;1.00
4673;DHT22;61885;53.560;9.940;2023-05-10T04:16:38;11.70;1.00
4673;DHT22;61885;53.560;9.940;2023-05-10T04:19:08;12.70;1.00
4673;DHT22;61885;53.560;9.940;2023-05-10T04:21:40;12.80;1.00
4673;DHT22;61885;53.560;9.940;2023-05-10T04:24:10;13.10;1.00
4673;DHT22;61885;53.560;9.940;2023-05-10T04:26:40;12.70;1.00
4673;DHT22;61885;53.560;9.940;2023-05-10T04:29:12;12.70;1.00
4673;DHT22;61885;53.560;9.940;2023-05-10T04:31:43;12.70;1.00
4673;DHT22;61885;53.560;9.940;2023-05-10T04:34:13;12.80;1.00
4673;DHT22;61885;53.560;9.940;2023-05-10T04:36:49;12.70;1.00
4673;DHT22;61885;53.560;9.940;2023-05-10T04:39:19;12.70;1.00
4673;DHT22;61885;53.560;9.940;2023-05-10T04:41:49;12.80;1.00
4673;DHT22;61885;53.560;9.940;2023-05-10T04:44:21;12.80;1.00
4673;DHT22;61885;53.560;9.940;2023-05-10T04:46:52;12.70;1.00
4673;DHT22;61885;53.560;9.940;2023-05-10T04:49:22;12.60;1.00
4673;DHT22;61885;53.560;9.940;2023-05-10T04:51:54;12.70;1.00
4673;DHT22;61885;53.560;9.940;2023-05-10T04:54:24;12.80;1.00
4673;DHT22;61885;53.560;9.940;2023-05-10T04:56:54;12.70;1.00
4673;DHT22;61885;53.560;9.940;2023-05-10T04:59:24;12.80;1.00
4673;DHT22;61885;53.560;9.940;2023-05-10T05:01:53;12.80;1.00
4673;DHT22;61885;53.560;9.940;2023-05-10T05:04:24;12.80;1.00
4673;DHT22;61885;53.560;9.940;2023-05-10T05:06:56;12.80;1.00
4673;DHT22;61885;53.560;9.940;2023-05-10T05:09:26;12.90;1.00
4673;DHT22;61885;53.560;9.940;2023-05-10T05:11:56;12.90;1.00
4673;DHT22;61885;53.560;9.940;2023-05-10T05:14:25;13.00;1.00
4673;DHT22;61885;53.560;9.940;2023-05-10T05:16:59;13.00;1.00
4673;DHT22;61885;53.560;9.940;2023-05-10T05:19:31;13.20;1.00
4673;DHT22;61885;53.560;9.940;2023-05-10T05:22:03;13.40;1.00
4673;DHT22;61885;53.560;9.940;2023-05-10T05:24:35;13.30;1.00
4673;DHT22;61885;53.560;9.940;2023-05-10T05:27:06;13.30;1.00
4673;DHT22;61885;53.560;9.940;2023-05-10T05:29:36;13.20;1.00
4673;DHT22;61885;53.560;9.940;2023-05-10T05:32:05;13.10;1.00
4673;DHT22;61885;53.560;9.940;2023-05-10T05:34:35;13.10;1.00
4673;DHT22;61885;53.560;9.940;2023-05-10T05:37:12;13.30;1.00
4673;DHT22;61885;53.560;9.940;2023-05-10T05:39:42;13.40;1.00
4673;DHT22;61885;53.560;9.940;2023-05-10T05:42:13;13.30;1.00
4673;DHT22;61885;53.560;9.940;2023-05-10T05:44:43;13.50;1.00
4673;DHT22;61885;53.560;9.940;2023-05-10T05:47:12;13.60;1.00
4673;DHT22;61885;53.560;9.940;2023-05-10T05:49:46;13.50;1.00
4673;DHT22;61885;53.560;9.940;2023-05-10T05:52:19;13.40;1.00
4673;DHT22;61885;53.560;9.940;2023-05-10T05:54:49;13.40;1.00
4673;DHT22;61885;53.560;9.940;2023-05-10T05:57:18;13.60;1.00
4673;DHT22;61885;53.560;9.940;2023-05-10T05:59:48;13.80;1.00
4673;DHT22;61885;53.560;9.940;2023-05-10T06:02:17;13.90;1.00
4673;DHT22;61885;53.560;9.940;2023-05-10T06:04:46;14.00;1.00
4673;DHT22;61885;53.560;9.940;2023-05-10T06:07:19;13.90;1.00
4673;DHT22;61885;53.560;9.940;2023-05-10T06:09:48;14.00;1.00
4673;DHT22;61885;53.560;9.940;2023-05-10T06:12:18;13.90;1.00
4673;DHT22;61885;53.560;9.940;2023-05-10T06:14:50;13.80;1.00
4673;DHT22;61885;53.560;9.940;2023-05-10T06:17:22;14.00;1.00
4673;DHT22;61885;53.560;9.940;2023-05-10T06:19:53;14.00;1.00
4673;DHT22;61885;53.560;9.940;2023-05-10T06:22:25;14.10;1.00
4673;DHT22;61885;53.560;9.940;2023-05-10T06:24:54;14.30;1.00
4673;DHT22;61885;53.560;9.940;2023-05-10T06:27:24;14.30;1.00
4673;DHT22;61885;53.560;9.940;2023-05-10T06:30:01;14.30;1.00
4673;DHT22;61885;53.560;9.940;2023-05-10T06:32:32;14.40;1.00
4673;DHT22;61885;53.560;9.940;2023-05-10T06:35:06;14.50;1.00
4673;DHT22;61885;53.560;9.940;2023-05-10T06:37:45;14.70;1.00
4673;DHT22;61885;53.560;9.940;2023-05-10T06:40:16;14.80;1.00
4673;DHT22;61885;53.560;9.940;2023-05-10T06:42:45;15.00;1.00
4673;DHT22;61885;53.560;9.940;2023-05-10T06:45:16;15.00;1.00
4673;DHT22;61885;53.560;9.940;2023-05-10T06:47:53;14.70;1.00
4673;DHT22;61885;53.560;9.940;2023-05-10T06:50:23;14.70;1.00
4673;DHT22;61885;53.560;9.940;2023-05-10T06:52:56;14.70;1.00
4673;DHT22;61885;53.560;9.940;2023-05-10T06:55:26;14.70;1.00
4673;DHT22;61885;53.560;9.940;2023-05-10T06:57:58;14.80;1.00
4673;DHT22;61885;53.560;9.940;2023-05-10T07:00:29;15.00;1.00
4673;DHT22;61885;53.560;9.940;2023-05-10T07:02:58;15.00;1.00
4673;DHT22;61885;53.560;9.940;2023-05-10T07:05:28;15.30;1.00
4673;DHT22;61885;53.560;9.940;2023-05-10T07:08:00;15.60;1.00
4673;DHT22;61885;53.560;9.940;2023-05-10T07:10:30;15.70;1.00
4673;DHT22;61885;53.560;9.940;2023-05-10T07:13:00;15.90;1.00
4673;DHT22;61885;53.560;9.940;2023-05-10T07:15:31;16.10;1.00
4673;DHT22;61885;53.560;9.940;2023-05-10T07:18:01;16.30;1.00
4673;DHT22;61885;53.560;9.940;2023-05-10T07:20:32;16.50;1.00
4673;DHT22;61885;53.560;9.940;2023-05-10T07:23:04;16.60;1.00
4673;DHT22;61885;53.560;9.940;2023-05-10T07:25:34;16.30;1.00
4673;DHT22;61885;53.560;9.940;2023-05-10T07:28:04;16.10;1.00
4673;DHT22;61885;53.560;9.940;2023-05-10T07:30:34;16.40;1.00
4673;DHT22;61885;53.560;9.940;2023-05-10T07:33:06;16.50;1.00
4673;DHT22;61885;53.560;9.940;2023-05-10T07:35:37;16.70;1.00
4673;DHT22;61885;53.560;9.940;2023-05-10T07:38:09;16.80;1.00
4673;DHT22;61885;53.560;9.940;2023-05-10T07:40:39;16.60;1.00
4673;DHT22;61885;53.560;9.940;2023-05-10T07:43:09;16.60;1.00
4673;DHT22;61885;53.560;9.940;2023-05-10T07:45:39;16.60;1.00
4673;DHT22;61885;53.560;9.940;2023-05-10T07:48:08;16.80;1.00
4673;DHT22;61885;53.560;9.940;2023-05-10T07:50:38;16.40;1.00
4673;DHT22;61885;53.560;9.940;2023-05-10T07:53:16;16.90;1.00
4673;DHT22;61885;53.560;9.940;2023-05-10T07:55:50;17.00;1.00
4673;DHT22;61885;53.560;9.940;2023-05-10T07:58:19;16.80;1.00
4673;DHT22;61885;53.560;9.940;2023-05-10T08:00:51;16.70;1.00
4673;DHT22;61885;53.560;9.940;2023-05-10T08:03:21;17.00;1.00
4673;DHT22;61885;53.560;9.940;2023-05-10T08:05:56;17.00;1.00
4673;DHT22;61885;53.560;9.940;2023-05-10T08:08:29;16.90;1.00
4673;DHT22;61885;53.560;9.940;2023-05-10T08:11:10;16.70;1.00
4673;DHT22;61885;53.560;9.940;2023-05-10T08:13:45;16.60;1.00
4673;DHT22;61885;53.560;9.940;2023-05-10T08:16:19;16.80;1.00
4673;DHT22;61885;53.560;9.940;2023-05-10T08:18:52;16.80;1.00
4673;DHT22;61885;53.560;9.940;2023-05-10T08:21:22;16.80;1.00
4673;DHT22;61885;53.560;9.940;2023-05-10T08:23:57;16.70;1.00
4673;DHT22;61885;53.560;9.940;2023-05-10T08:26:27;16.80;1.00
4673;DHT22;61885;53.560;9.940;2023-05-10T08:28:59;16.80;1.00
4673;DHT22;61885;53.560;9.940;2023-05-10T08:31:30;17.10;1.00
4673;DHT22;61885;53.560;9.940;2023-05-10T08:34:00;17.00;1.00
4673;DHT22;61885;53.560;9.940;2023-05-10T08:36:30;17.20;1.00
4673;DHT22;61885;53.560;9.940;2023-05-10T08:39:06;17.30;1.00
4673;DHT22;61885;53.560;9.940;2023-05-10T08:41:39;17.40;1.00
4673;DHT22;61885;53.560;9.940;2023-05-10T08:44:08;17.50;1.00
4673;DHT22;61885;53.560;9.940;2023-05-10T08:46:41;17.40;1.00
4673;DHT22;61885;53.560;9.940;2023-05-10T08:49:19;17.60;1.00
4673;DHT22;61885;53.560;9.940;2023-05-10T08:51:51;17.60;1.00
4673;DHT22;61885;53.560;9.940;2023-05-10T08:54:24;17.40;1.00
4673;DHT22;61885;53.560;9.940;2023-05-10T08:56:56;17.30;1.00
4673;DHT22;61885;53.560;9.940;2023-05-10T08:59:27;17.10;1.00
4673;DHT22;61885;53.560;9.940;2023-05-10T09:01:57;17.20;1.00
4673;DHT22;61885;53.560;9.940;2023-05-10T09:04:28;17.20;1.00
4673;DHT22;61885;53.560;9.940;2023-05-10T09:06:58;17.20;1.00
4673;DHT22;61885;53.560;9.940;2023-05-10T09:09:31;17.30;1.00
4673;DHT22;61885;53.560;9.940;2023-05-10T09:12:00;17.60;1.00
4673;DHT22;61885;53.560;9.940;2023-05-10T09:14:31;17.40;1.00
4673;DHT22;61885;53.560;9.940;2023-05-10T09:17:04;16.80;1.00
4673;DHT22;61885;53.560;9.940;2023-05-10T09:19:36;16.80;1.00
4673;DHT22;61885;53.560;9.940;2023-05-10T09:22:06;16.80;1.00
4673;DHT22;61885;53.560;9.940;2023-05-10T09:24:40;17.00;1.00
4673;DHT22;61885;53.560;9.940;2023-05-10T09:27:11;17.00;1.00
4673;DHT22;61885;53.560;9.940;2023-05-10T09:29:43;16.90;1.00
4673;DHT22;61885;53.560;9.940;2023-05-10T09:32:12;16.90;1.00
4673;DHT22;61885;53.560;9.940;2023-05-10T09:34:44;17.00;1.00
4673;DHT22;61885;53.560;9.940;2023-05-10T09:37:15;16.90;1.00
4673;DHT22;61885;53.560;9.940;2023-05-10T09:39:48;16.80;1.00
4673;DHT22;61885;53.560;9.940;2023-05-10T09:42:25;16.30;1.00
4673;DHT22;61885;53.560;9.940;2023-05-10T09:45:01;16.00;1.00
4673;DHT22;61885;53.560;9.940;2023-05-10T09:47:32;15.80;1.00
4673;DHT22;61885;53.560;9.940;2023-05-10T09:50:04;15.50;1.00
4673;DHT22;61885;53.560;9.940;2023-05-10T09:52:46;15.20;1.00
4673;DHT22;61885;53.560;9.940;2023-05-10T09:55:21;15.10;1.00
4673;DHT22;61885;53.560;9.940;2023-05-10T09:57:59;14.80;1.00
4673;DHT22;61885;53.560;9.940;2023-05-10T10:00:35;14.70;1.00
4673;DHT22;61885;53.560;9.940;2023-05-10T10:03:14;14.50;1.00
4673;DHT22;61885;53.560;9.940;2023-05-10T10:05:46;14.30;1.00
4673;DHT22;61885;53.560;9.940;2023-05-10T10:08:25;14.10;1.00
4673;DHT22;61885;53.560;9.940;2023-05-10T10:11:01;14.10;1.00
4673;DHT22;61885;53.560;9.940;2023-05-10T10:13:32;14.10;1.00
4673;DHT22;61885;53.560;9.940;2023-05-10T10:16:08;14.20;1.00
4673;DHT22;61885;53.560;9.940;2023-05-10T10:18:41;14.20;1.00
4673;DHT22;61885;53.560;9.940;2023-05-10T10:21:15;14.10;2.80
4673;DHT22;61885;53.560;9.940;2023-05-10T10:23:46;13.90;1.40
4673;DHT22;61885;53.560;9.940;2023-05-10T10:26:19;13.90;5.30
4673;DHT22;61885;53.560;9.940;2023-05-10T10:28:57;13.90;9.50
4673;DHT22;61885;53.560;9.940;2023-05-10T10:31:34;13.80;13.30
4673;DHT22;61885;53.560;9.940;2023-05-10T10:34:10;13.90;19.20
4673;DHT22;61885;53.560;9.940;2023-05-10T10:36:45;14.20;17.00
4673;DHT22;61885;53.560;9.940;2023-05-10T10:39:15;14.20;16.60
4673;DHT22;61885;53.560;9.940;2023-05-10T10:41:55;14.30;21.30
4673;DHT22;61885;53.560;9.940;2023-05-10T10:44:36;14.10;21.90
4673;DHT22;61885;53.560;9.940;2023-05-10T10:47:21;14.10;24.30
4673;DHT22;61885;53.560;9.940;2023-05-10T10:50:04;14.10;25.80
4673;DHT22;61885;53.560;9.940;2023-05-10T10:52:36;14.20;31.00
4673;DHT22;61885;53.560;9.940;2023-05-10T10:55:11;14.30;27.00
4673;DHT22;61885;53.560;9.940;2023-05-10T10:57:50;14.40;32.80
4673;DHT22;61885;53.560;9.940;2023-05-10T11:00:28;14.20;35.80
4673;DHT22;61885;53.560;9.940;2023-05-10T11:03:04;14.00;40.00
4673;DHT22;61885;53.560;9.940;2023-05-10T11:05:41;14.00;44.80
4673;DHT22;61885;53.560;9.940;2023-05-10T11:08:19;14.10;50.30
4673;DHT22;61885;53.560;9.940;2023-05-10T11:10:51;14.10;47.70
4673;DHT22;61885;53.560;9.940;2023-05-10T11:13:31;14.20;41.50
4673;DHT22;61885;53.560;9.940;2023-05-10T11:16:12;14.30;34.80
4673;DHT22;61885;53.560;9.940;2023-05-10T11:18:53;14.40;36.50
4673;DHT22;61885;53.560;9.940;2023-05-10T11:21:33;14.50;36.00
4673;DHT22;61885;53.560;9.940;2023-05-10T11:24:18;14.50;32.90
4673;DHT22;61885;53.560;9.940;2023-05-10T11:26:51;14.50;32.90
4673;DHT22;61885;53.560;9.940;2023-05-10T11:29:23;14.50;30.40
4673;DHT22;61885;53.560;9.940;2023-05-10T11:31:57;14.50;28.90
4673;DHT22;61885;53.560;9.940;2023-05-10T11:34:27;14.60;30.90
4673;DHT22;61885;53.560;9.940;2023-05-10T11:36:59;14.60;34.30
4673;DHT22;61885;53.560;9.940;2023-05-10T11:39:30;14.40;35.80
4673;DHT22;61885;53.560;9.940;2023-05-10T11:42:01;14.40;47.10
4673;DHT22;61885;53.560;9.940;2023-05-10T11:44:35;14.50;43.20
4673;DHT22;61885;53.560;9.940;2023-05-10T11:47:05;14.50;44.00
4673;DHT22;61885;53.560;9.940;2023-05-10T11:49:35;14.40;48.20
4673;DHT22;61885;53.560;9.940;2023-05-10T11:52:05;14.30;51.60
4673;DHT22;61885;53.560;9.940;2023-05-10T11:54:37;14.30;67.40
4673;DHT22;61885;53.560;9.940;2023-05-10T11:57:07;14.30;91.90
4673;DHT22;61885;53.560;9.940;2023-05-10T11:59:42;14.20;92.80
4673;DHT22;61885;53.560;9.940;2023-05-10T12:02:14;14.40;99.90
4673;DHT22;61885;53.560;9.940;2023-05-10T12:04:46;14.50;99.90
4673;DHT22;61885;53.560;9.940;2023-05-10T12:07:19;14.40;99.90
4673;DHT22;61885;53.560;9.940;2023-05-10T12:10:04;14.50;99.90
4673;DHT22;61885;53.560;9.940;2023-05-10T12:12:42;14.70;99.90
4673;DHT22;61885;53.560;9.940;2023-05-10T12:15:18;14.80;99.90
4673;DHT22;61885;53.560;9.940;2023-05-10T12:17:52;14.80;99.90
4673;DHT22;61885;53.560;9.940;2023-05-10T12:20:27;14.80;99.90
4673;DHT22;61885;53.560;9.940;2023-05-10T12:22:59;14.90;99.90
4673;DHT22;61885;53.560;9.940;2023-05-10T12:25:36;15.10;98.00
4673;DHT22;61885;53.560;9.940;2023-05-10T12:28:08;15.10;93.80
4673;DHT22;61885;53.560;9.940;2023-05-10T12:30:43;15.10;91.90
4673;DHT22;61885;53.560;9.940;2023-05-10T12:33:13;15.20;89.40
4673;DHT22;61885;53.560;9.940;2023-05-10T12:35:47;15.30;90.60
4673;DHT22;61885;53.560;9.940;2023-05-10T12:38:31;15.20;93.20
4673;DHT22;61885;53.560;9.940;2023-05-10T12:41:02;15.20;96.90
4673;DHT22;61885;53.560;9.940;2023-05-10T12:43:33;15.20;99.10
4673;DHT22;61885;53.560;9.940;2023-05-10T12:46:09;15.10;99.90
4673;DHT22;61885;53.560;9.940;2023-05-10T12:48:41;14.90;99.90
4673;DHT22;61885;53.560;9.940;2023-05-10T12:51:12;15.20;99.90
4673;DHT22;61885;53.560;9.940;2023-05-10T12:53:51;15.50;99.90
4673;DHT22;61885;53.560;9.940;2023-05-10T12:56:24;15.70;99.90
4673;DHT22;61885;53.560;9.940;2023-05-10T12:58:54;15.50;99.90
4673;DHT22;61885;53.560;9.940;2023-05-10T13:01:30;15.80;99.20
4673;DHT22;61885;53.560;9.940;2023-05-10T13:04:03;15.90;86.80
4673;DHT22;61885;53.560;9.940;2023-05-10T13:06:34;15.90;80.80
4673;DHT22;61885;53.560;9.940;2023-05-10T13:09:04;15.90;75.90
4673;DHT22;61885;53.560;9.940;2023-05-10T13:11:40;16.00;74.00
4673;DHT22;61885;53.560;9.940;2023-05-10T13:14:14;16.30;67.50
4673;DHT22;61885;53.560;9.940;2023-05-10T13:16:49;16.40;49.70
4673;DHT22;61885;53.560;9.940;2023-05-10T13:19:21;16.50;48.00
4673;DHT22;61885;53.560;9.940;2023-05-10T13:21:52;16.50;34.70
4673;DHT22;61885;53.560;9.940;2023-05-10T13:24:22;16.80;26.50
4673;DHT22;61885;53.560;9.940;2023-05-10T13:26:54;16.80;22.50
4673;DHT22;61885;53.560;9.940;2023-05-10T13:29:23;16.80;21.40
4673;DHT22;61885;53.560;9.940;2023-05-10T13:31:55;17.20;21.50
4673;DHT22;61885;53.560;9.940;2023-05-10T13:34:26;16.90;10.20
4673;DHT22;61885;53.560;9.940;2023-05-10T13:36:55;17.00;10.40
4673;DHT22;61885;53.560;9.940;2023-05-10T13:39:25;17.20;9.30
4673;DHT22;61885;53.560;9.940;2023-05-10T13:41:59;17.40;6.90
4673;DHT22;61885;53.560;9.940;2023-05-10T13:44:29;17.30;1.00
4673;DHT22;61885;53.560;9.940;2023-05-10T13:47:03;17.20;1.00
4673;DHT22;61885;53.560;9.940;2023-05-10T13:49:34;17.30;1.00
4673;DHT22;61885;53.560;9.940;2023-05-10T13:52:04;17.10;1.00
4673;DHT22;61885;53.560;9.940;2023-05-10T13:54:33;16.70;1.00
4673;DHT22;61885;53.560;9.940;2023-05-10T13:57:03;16.80;3.60
4673;DHT22;61885;53.560;9.940;2023-05-10T13:59:33;16.90;1.00
4673;DHT22;61885;53.560;9.940;2023-05-10T14:02:06;17.30;1.00
4673;DHT22;61885;53.560;9.940;2023-05-10T14:04:35;17.70;1.00
4673;DHT22;61885;53.560;9.940;2023-05-10T14:07:05;17.90;1.00
4673;DHT22;61885;53.560;9.940;2023-05-10T14:09:35;18.10;1.00
4673;DHT22;61885;53.560;9.940;2023-05-10T14:12:05;18.20;1.00
4673;DHT22;61885;53.560;9.940;2023-05-10T14:14:34;18.00;1.00
4673;DHT22;61885;53.560;9.940;2023-05-10T14:17:06;18.20;1.00
4673;DHT22;61885;53.560;9.940;2023-05-10T14:19:38;18.50;1.00
4673;DHT22;61885;53.560;9.940;2023-05-10T14:22:10;17.90;1.00
4673;DHT22;61885;53.560;9.940;2023-05-10T14:24:41;17.70;1.00
4673;DHT22;61885;53.560;9.940;2023-05-10T14:27:13;17.60;1.00
4673;DHT22;61885;53.560;9.940;2023-05-10T14:29:42;17.40;1.00
4673;DHT22;61885;53.560;9.940;2023-05-10T14:32:14;17.30;1.00
4673;DHT22;61885;53.560;9.940;2023-05-10T14:34:44;17.40;1.00
4673;DHT22;61885;53.560;9.940;2023-05-10T14:37:14;17.20;1.00
4673;DHT22;61885;53.560;9.940;2023-05-10T14:39:43;17.40;1.00
4673;DHT22;61885;53.560;9.940;2023-05-10T14:42:13;17.10;1.00
4673;DHT22;61885;53.560;9.940;2023-05-10T14:44:43;16.90;1.00
4673;DHT22;61885;53.560;9.940;2023-05-10T14:47:15;17.00;1.00
4673;DHT22;61885;53.560;9.940;2023-05-10T14:49:45;17.10;1.00
4673;DHT22;61885;53.560;9.940;2023-05-10T14:52:15;17.00;1.00
4673;DHT22;61885;53.560;9.940;2023-05-10T14:54:44;16.80;1.00
4673;DHT22;61885;53.560;9.940;2023-05-10T14:57:14;16.70;1.00
4673;DHT22;61885;53.560;9.940;2023-05-10T14:59:43;16.60;1.00
4673;DHT22;61885;53.560;9.940;2023-05-10T15:02:16;16.60;1.00
4673;DHT22;61885;53.560;9.940;2023-05-10T15:04:45;16.50;1.00
4673;DHT22;61885;53.560;9.940;2023-05-10T15:07:17;16.40;1.00
4673;DHT22;61885;53.560;9.940;2023-05-10T15:09:50;16.40;1.00
4673;DHT22;61885;53.560;9.940;2023-05-10T15:12:20;16.60;1.00
4673;DHT22;61885;53.560;9.940;2023-05-10T15:14:50;16.90;1.00
4673;DHT22;61885;53.560;9.940;2023-05-10T15:17:23;17.00;1.00
4673;DHT22;61885;53.560;9.940;2023-05-10T15:19:52;17.40;1.00
4673;DHT22;61885;53.560;9.940;2023-05-10T15:22:22;17.40;1.00
4673;DHT22;61885;53.560;9.940;2023-05-10T15:24:54;17.40;1.00
4673;DHT22;61885;53.560;9.940;2023-05-10T15:27:24;17.50;1.00
4673;DHT22;61885;53.560;9.940;2023-05-10T15:29:54;17.40;1.00
4673;DHT22;61885;53.560;9.940;2023-05-10T15:32:29;17.50;1.00
4673;DHT22;61885;53.560;9.940;2023-05-10T15:35:00;17.60;1.00
4673;DHT22;61885;53.560;9.940;2023-05-10T15:37:30;17.30;1.00
4673;DHT22;61885;53.560;9.940;2023-05-10T15:39:59;17.30;1.00
4673;DHT22;61885;53.560;9.940;2023-05-10T15:42:31;17.10;1.00
4673;DHT22;61885;53.560;9.940;2023-05-10T15:45:06;17.20;1.00
4673;DHT22;61885;53.560;9.940;2023-05-10T15:47:39;17.00;1.00
4673;DHT22;61885;53.560;9.940;2023-05-10T15:50:15;16.80;1.00
4673;DHT22;61885;53.560;9.940;2023-05-10T15:52:46;16.70;1.00
4673;DHT22;61885;53.560;9.940;2023-05-10T15:55:18;16.50;7.50
4673;DHT22;61885;53.560;9.940;2023-05-10T15:57:50;16.30;22.40
4673;DHT22;61885;53.560;9.940;2023-05-10T16:00:20;16.10;49.40
4673;DHT22;61885;53.560;9.940;2023-05-10T16:02:56;15.50;99.90
4673;DHT22;61885;53.560;9.940;2023-05-10T16:05:26;15.20;99.90
4673;DHT22;61885;53.560;9.940;2023-05-10T16:07:59;15.00;99.90
4673;DHT22;61885;53.560;9.940;2023-05-10T16:10:31;14.90;99.90
4673;DHT22;61885;53.560;9.940;2023-05-10T16:13:00;14.80;99.90
4673;DHT22;61885;53.560;9.940;2023-05-10T16:15:30;14.90;99.90
4673;DHT22;61885;53.560;9.940;2023-05-10T16:18:04;15.00;99.90
4673;DHT22;61885;53.560;9.940;2023-05-10T16:20:34;15.10;99.90
4673;DHT22;61885;53.560;9.940;2023-05-10T16:23:05;15.20;99.90
4673;DHT22;61885;53.560;9.940;2023-05-10T16:25:35;15.20;99.90
4673;DHT22;61885;53.560;9.940;2023-05-10T16:28:04;15.30;99.90
4673;DHT22;61885;53.560;9.940;2023-05-10T16:30:36;15.40;99.90